sensor_id;sensor_type;location;lat;lon;timestamp;P1;durP1;ratioP1;P2;durP2;ratioP2
51270;SDS011;37744;50.960;4.136;2022-12-07T00:00:13;23.42;;;12.90;;
51270;SDS011;37744;50.960;4.136;2022-12-07T00:02:39;23.05;;;13.55;;
51270;SDS011;37744;50.960;4.136;2022-12-07T00:05:04;23.10;;;12.73;;
51270;SDS011;37744;50.960;4.136;2022-12-07T00:07:29;27.73;;;14.23;;
51270;SDS011;37744;50.960;4.136;2022-12-07T00:09:55;26.73;;;13.57;;
51270;SDS011;37744;50.960;4.136;2022-12-07T00:12:20;27.02;;;15.90;;
51270;SDS011;37744;50.960;4.136;2022-12-07T00:14:46;30.40;;;15.18;;
51270;SDS011;37744;50.960;4.136;2022-12-07T00:17:11;25.35;;;14.90;;
51270;SDS011;37744;50.960;4.136;2022-12-07T00:19:36;26.63;;;15.73;;
51270;SDS011;37744;50.960;4.136;2022-12-07T00:22:02;26.85;;;15.45;;
51270;SDS011;37744;50.960;4.136;2022-12-07T00:24:27;25.85;;;15.00;;
51270;SDS011;37744;50.960;4.136;2022-12-07T00:26:52;27.45;;;15.98;;
51270;SDS011;37744;50.960;4.136;2022-12-07T00:29:18;30.88;;;15.43;;
51270;SDS011;37744;50.960;4.136;2022-12-07T00:31:44;25.92;;;15.27;;
51270;SDS011;37744;50.960;4.136;2022-12-07T00:34:14;28.40;;;14.68;;
51270;SDS011;37744;50.960;4.136;2022-12-07T00:36:39;24.98;;;15.05;;
51270;SDS011;37744;50.960;4.136;2022-12-07T00:39:04;28.00;;;14.93;;
51270;SDS011;37744;50.960;4.136;2022-12-07T00:41:30;26.98;;;14.77;;
51270;SDS011;37744;50.960;4.136;2022-12-07T00:43:55;30.33;;;15.18;;
51270;SDS011;37744;50.960;4.136;2022-12-07T00:46:20;23.98;;;14.13;;
51270;SDS011;37744;50.960;4.136;2022-12-07T00:48:46;22.55;;;13.60;;
51270;SDS011;37744;50.960;4.136;2022-12-07T00:51:13;25.95;;;13.95;;
51270;SDS011;37744;50.960;4.136;2022-12-07T00:53:38;30.10;;;14.45;;
51270;SDS011;37744;50.960;4.136;2022-12-07T00:56:07;26.13;;;13.82;;
51270;SDS011;37744;50.960;4.136;2022-12-07T00:58:33;30.80;;;14.20;;
51270;SDS011;37744;50.960;4.136;2022-12-07T01:01:01;27.73;;;13.93;;
51270;SDS011;37744;50.960;4.136;2022-12-07T01:03:27;24.75;;;13.20;;
51270;SDS011;37744;50.960;4.136;2022-12-07T01:05:54;27.75;;;14.02;;
51270;SDS011;37744;50.960;4.136;2022-12-07T01:08:20;27.40;;;13.60;;
51270;SDS011;37744;50.960;4.136;2022-12-07T01:10:45;23.52;;;13.40;;
51270;SDS011;37744;50.960;4.136;2022-12-07T01:13:11;27.83;;;13.80;;
51270;SDS011;37744;50.960;4.136;2022-12-07T01:15:43;28.52;;;14.13;;
51270;SDS011;37744;50.960;4.136;2022-12-07T01:18:09;22.63;;;12.45;;
51270;SDS011;37744;50.960;4.136;2022-12-07T01:20:34;26.67;;;13.25;;
51270;SDS011;37744;50.960;4.136;2022-12-07T01:22:59;24.58;;;12.88;;
51270;SDS011;37744;50.960;4.136;2022-12-07T01:25:25;23.42;;;13.40;;
51270;SDS011;37744;50.960;4.136;2022-12-07T01:27:50;25.45;;;13.48;;
51270;SDS011;37744;50.960;4.136;2022-12-07T01:30:15;22.63;;;13.25;;
51270;SDS011;37744;50.960;4.136;2022-12-07T01:32:40;23.55;;;12.65;;
51270;SDS011;37744;50.960;4.136;2022-12-07T01:35:06;21.55;;;12.70;;
51270;SDS011;37744;50.960;4.136;2022-12-07T01:37:38;27.83;;;12.57;;
51270;SDS011;37744;50.960;4.136;2022-12-07T01:40:07;21.25;;;11.63;;
51270;SDS011;37744;50.960;4.136;2022-12-07T01:42:33;25.73;;;11.80;;
51270;SDS011;37744;50.960;4.136;2022-12-07T01:47:39;18.80;;;10.43;;
51270;SDS011;37744;50.960;4.136;2022-12-07T01:50:04;16.23;;;9.90;;
51270;SDS011;37744;50.960;4.136;2022-12-07T01:52:30;17.30;;;10.10;;
51270;SDS011;37744;50.960;4.136;2022-12-07T01:54:57;14.55;;;9.27;;
51270;SDS011;37744;50.960;4.136;2022-12-07T01:57:23;22.63;;;10.05;;
51270;SDS011;37744;50.960;4.136;2022-12-07T01:59:49;20.40;;;10.68;;
51270;SDS011;37744;50.960;4.136;2022-12-07T02:02:17;24.38;;;11.07;;
51270;SDS011;37744;50.960;4.136;2022-12-07T02:04:43;19.85;;;12.18;;
51270;SDS011;37744;50.960;4.136;2022-12-07T02:07:09;22.33;;;11.40;;
51270;SDS011;37744;50.960;4.136;2022-12-07T02:09:34;19.20;;;11.30;;
51270;SDS011;37744;50.960;4.136;2022-12-07T02:11:59;22.20;;;11.43;;
51270;SDS011;37744;50.960;4.136;2022-12-07T02:14:25;25.67;;;11.63;;
51270;SDS011;37744;50.960;4.136;2022-12-07T02:39:50;14.27;;;8.45;;
51270;SDS011;37744;50.960;4.136;2022-12-07T02:42:23;13.30;;;7.93;;
51270;SDS011;37744;50.960;4.136;2022-12-07T02:44:48;13.85;;;7.43;;
51270;SDS011;37744;50.960;4.136;2022-12-07T02:47:15;13.38;;;7.63;;
51270;SDS011;37744;50.960;4.136;2022-12-07T02:49:42;14.55;;;7.20;;
51270;SDS011;37744;50.960;4.136;2022-12-07T02:52:07;13.00;;;6.68;;
51270;SDS011;37744;50.960;4.136;2022-12-07T02:54:33;16.92;;;7.20;;
51270;SDS011;37744;50.960;4.136;2022-12-07T02:59:47;14.75;;;8.35;;
51270;SDS011;37744;50.960;4.136;2022-12-07T03:10:34;13.95;;;7.65;;
51270;SDS011;37744;50.960;4.136;2022-12-07T03:12:38;12.85;;;7.70;;
51270;SDS011;37744;50.960;4.136;2022-12-07T03:15:11;17.95;;;8.32;;
51270;SDS011;37744;50.960;4.136;2022-12-07T03:17:37;16.48;;;9.52;;
51270;SDS011;37744;50.960;4.136;2022-12-07T03:20:04;19.05;;;9.68;;
51270;SDS011;37744;50.960;4.136;2022-12-07T03:22:31;22.77;;;9.70;;
51270;SDS011;37744;50.960;4.136;2022-12-07T03:25:01;20.33;;;10.50;;
51270;SDS011;37744;50.960;4.136;2022-12-07T03:27:30;20.73;;;9.90;;
51270;SDS011;37744;50.960;4.136;2022-12-07T03:32:26;20.30;;;10.65;;
51270;SDS011;37744;50.960;4.136;2022-12-07T03:35:14;19.13;;;9.48;;
51270;SDS011;37744;50.960;4.136;2022-12-07T03:37:55;19.02;;;9.27;;
51270;SDS011;37744;50.960;4.136;2022-12-07T03:42:49;19.45;;;11.25;;
51270;SDS011;37744;50.960;4.136;2022-12-07T03:45:16;22.88;;;11.32;;
51270;SDS011;37744;50.960;4.136;2022-12-07T03:47:50;20.55;;;10.95;;
51270;SDS011;37744;50.960;4.136;2022-12-07T03:50:25;28.48;;;11.73;;
51270;SDS011;37744;50.960;4.136;2022-12-07T03:52:54;22.88;;;12.32;;
51270;SDS011;37744;50.960;4.136;2022-12-07T03:55:26;21.92;;;11.88;;
